sensor_id;sensor_type;location;lat;lon;timestamp;temperature;humidity
10889;DHT22;5497;51.388;6.780;2022-09-03T00:01:44;17.10;84.60
10889;DHT22;5497;51.388;6.780;2022-09-03T00:04:17;17.10;84.80
10889;DHT22;5497;51.388;6.780;2022-09-03T00:06:47;17.00;84.80
10889;DHT22;5497;51.388;6.780;2022-09-03T00:09:16;17.00;84.40
10889;DHT22;5497;51.388;6.780;2022-09-03T00:11:48;16.90;85.00
10889;DHT22;5497;51.388;6.780;2022-09-03T00:14:18;16.90;85.30
10889;DHT22;5497;51.388;6.780;2022-09-03T00:16:47;16.90;85.20
10889;DHT22;5497;51.388;6.780;2022-09-03T00:19:15;16.90;85.20
10889;DHT22;5497;51.388;6.780;2022-09-03T00:21:44;16.90;85.30
10889;DHT22;5497;51.388;6.780;2022-09-03T00:24:12;16.90;85.30
10889;DHT22;5497;51.388;6.780;2022-09-03T00:26:41;17.00;85.40
10889;DHT22;5497;51.388;6.780;2022-09-03T00:29:10;17.00;85.50
10889;DHT22;5497;51.388;6.780;2022-09-03T00:31:40;16.90;86.10
10889;DHT22;5497;51.388;6.780;2022-09-03T00:34:09;16.90;85.60
10889;DHT22;5497;51.388;6.780;2022-09-03T00:36:38;16.90;85.50
10889;DHT22;5497;51.388;6.780;2022-09-03T00:39:08;16.80;84.80
10889;DHT22;5497;51.388;6.780;2022-09-03T00:41:36;16.80;85.80
10889;DHT22;5497;51.388;6.780;2022-09-03T00:46:50;16.70;86.20
10889;DHT22;5497;51.388;6.780;2022-09-03T00:49:23;16.70;85.50
10889;DHT22;5497;51.388;6.780;2022-09-03T00:51:53;16.60;86.30
10889;DHT22;5497;51.388;6.780;2022-09-03T00:54:25;16.60;86.60
10889;DHT22;5497;51.388;6.780;2022-09-03T00:56:55;16.50;86.60
10889;DHT22;5497;51.388;6.780;2022-09-03T00:59:28;16.50;86.80
10889;DHT22;5497;51.388;6.780;2022-09-03T01:02:02;16.40;86.80
10889;DHT22;5497;51.388;6.780;2022-09-03T01:04:34;16.40;87.10
10889;DHT22;5497;51.388;6.780;2022-09-03T01:07:08;16.30;86.80
10889;DHT22;5497;51.388;6.780;2022-09-03T01:09:43;16.30;87.00
10889;DHT22;5497;51.388;6.780;2022-09-03T01:12:15;16.20;86.90
10889;DHT22;5497;51.388;6.780;2022-09-03T01:14:47;16.20;87.10
10889;DHT22;5497;51.388;6.780;2022-09-03T01:20:11;16.10;86.40
10889;DHT22;5497;51.388;6.780;2022-09-03T01:22:49;16.10;87.80
10889;DHT22;5497;51.388;6.780;2022-09-03T01:25:24;16.00;87.90
10889;DHT22;5497;51.388;6.780;2022-09-03T01:28:01;15.90;86.70
10889;DHT22;5497;51.388;6.780;2022-09-03T01:30:28;15.90;88.30
10889;DHT22;5497;51.388;6.780;2022-09-03T01:32:58;15.90;88.30
10889;DHT22;5497;51.388;6.780;2022-09-03T01:35:27;15.90;88.40
10889;DHT22;5497;51.388;6.780;2022-09-03T01:38:00;15.80;88.50
10889;DHT22;5497;51.388;6.780;2022-09-03T01:40:33;15.70;88.70
10889;DHT22;5497;51.388;6.780;2022-09-03T01:43:11;15.70;88.90
10889;DHT22;5497;51.388;6.780;2022-09-03T01:45:40;15.60;89.10
10889;DHT22;5497;51.388;6.780;2022-09-03T01:48:13;15.60;89.30
10889;DHT22;5497;51.388;6.780;2022-09-03T01:50:43;15.50;89.40
10889;DHT22;5497;51.388;6.780;2022-09-03T01:53:14;15.40;89.60
10889;DHT22;5497;51.388;6.780;2022-09-03T01:55:43;16.60;90.50
10889;DHT22;5497;51.388;6.780;2022-09-03T01:58:15;15.30;90.00
10889;DHT22;5497;51.388;6.780;2022-09-03T02:00:44;15.20;90.00
10889;DHT22;5497;51.388;6.780;2022-09-03T02:03:15;15.10;90.10
10889;DHT22;5497;51.388;6.780;2022-09-03T02:05:42;15.10;90.20
10889;DHT22;5497;51.388;6.780;2022-09-03T02:08:11;15.00;90.30
10889;DHT22;5497;51.388;6.780;2022-09-03T02:10:39;14.90;90.40
10889;DHT22;5497;51.388;6.780;2022-09-03T02:13:07;14.90;90.50
10889;DHT22;5497;51.388;6.780;2022-09-03T02:15:36;14.80;90.50
10889;DHT22;5497;51.388;6.780;2022-09-03T02:18:05;14.70;89.90
10889;DHT22;5497;51.388;6.780;2022-09-03T02:20:33;14.60;90.70
10889;DHT22;5497;51.388;6.780;2022-09-03T02:22:59;14.60;90.80
10889;DHT22;5497;51.388;6.780;2022-09-03T02:25:28;14.50;90.90
10889;DHT22;5497;51.388;6.780;2022-09-03T02:27:55;14.40;90.20
10889;DHT22;5497;51.388;6.780;2022-09-03T02:30:22;14.40;91.10
10889;DHT22;5497;51.388;6.780;2022-09-03T02:32:50;14.30;91.10
10889;DHT22;5497;51.388;6.780;2022-09-03T02:35:17;14.30;91.20
10889;DHT22;5497;51.388;6.780;2022-09-03T02:37:44;14.20;91.30
10889;DHT22;5497;51.388;6.780;2022-09-03T02:40:10;14.20;91.30
10889;DHT22;5497;51.388;6.780;2022-09-03T02:42:37;14.10;91.40
10889;DHT22;5497;51.388;6.780;2022-09-03T02:45:06;15.30;92.00
10889;DHT22;5497;51.388;6.780;2022-09-03T02:47:36;14.00;90.90
10889;DHT22;5497;51.388;6.780;2022-09-03T02:50:07;14.00;91.70
10889;DHT22;5497;51.388;6.780;2022-09-03T02:52:34;14.00;91.70
10889;DHT22;5497;51.388;6.780;2022-09-03T02:55:01;13.90;91.80
10889;DHT22;5497;51.388;6.780;2022-09-03T02:57:28;13.90;91.50
10889;DHT22;5497;51.388;6.780;2022-09-03T02:59:55;13.90;92.00
10889;DHT22;5497;51.388;6.780;2022-09-03T03:02:21;13.90;92.00
10889;DHT22;5497;51.388;6.780;2022-09-03T03:04:48;14.20;92.30
10889;DHT22;5497;51.388;6.780;2022-09-03T03:07:16;13.80;92.30
10889;DHT22;5497;51.388;6.780;2022-09-03T03:09:43;13.80;92.10
10889;DHT22;5497;51.388;6.780;2022-09-03T03:12:10;13.80;92.40
10889;DHT22;5497;51.388;6.780;2022-09-03T03:14:36;13.80;92.40
10889;DHT22;5497;51.388;6.780;2022-09-03T03:17:03;13.70;92.50
10889;DHT22;5497;51.388;6.780;2022-09-03T03:19:30;13.70;92.30
10889;DHT22;5497;51.388;6.780;2022-09-03T03:21:56;13.70;92.60
10889;DHT22;5497;51.388;6.780;2022-09-03T03:24:24;13.70;92.80
10889;DHT22;5497;51.388;6.780;2022-09-03T03:26:53;13.60;92.90
10889;DHT22;5497;51.388;6.780;2022-09-03T03:29:22;13.60;92.80
10889;DHT22;5497;51.388;6.780;2022-09-03T03:31:49;13.60;92.90
10889;DHT22;5497;51.388;6.780;2022-09-03T03:34:16;13.60;93.00
10889;DHT22;5497;51.388;6.780;2022-09-03T03:36:43;13.50;93.00
10889;DHT22;5497;51.388;6.780;2022-09-03T03:39:09;13.50;92.70
10889;DHT22;5497;51.388;6.780;2022-09-03T03:41:37;13.50;93.20
10889;DHT22;5497;51.388;6.780;2022-09-03T03:44:05;13.40;93.20
10889;DHT22;5497;51.388;6.780;2022-09-03T03:46:33;13.40;93.30
10889;DHT22;5497;51.388;6.780;2022-09-03T03:49:00;13.40;93.70
10889;DHT22;5497;51.388;6.780;2022-09-03T03:51:27;13.40;93.50
10889;DHT22;5497;51.388;6.780;2022-09-03T03:53:55;13.40;93.60
10889;DHT22;5497;51.388;6.780;2022-09-03T03:56:22;13.30;93.60
10889;DHT22;5497;51.388;6.780;2022-09-03T03:58:51;13.40;93.70
10889;DHT22;5497;51.388;6.780;2022-09-03T04:01:18;13.30;93.80
10889;DHT22;5497;51.388;6.780;2022-09-03T04:03:45;13.30;93.80
10889;DHT22;5497;51.388;6.780;2022-09-03T04:06:12;13.30;93.90
10889;DHT22;5497;51.388;6.780;2022-09-03T04:08:39;13.20;93.90
10889;DHT22;5497;51.388;6.780;2022-09-03T04:11:07;13.20;94.00
10889;DHT22;5497;51.388;6.780;2022-09-03T04:13:34;13.20;94.10
10889;DHT22;5497;51.388;6.780;2022-09-03T04:16:03;13.10;94.10
10889;DHT22;5497;51.388;6.780;2022-09-03T04:18:30;13.10;94.20
10889;DHT22;5497;51.388;6.780;2022-09-03T04:20:58;13.10;94.30
10889;DHT22;5497;51.388;6.780;2022-09-03T04:23:26;13.10;94.40
10889;DHT22;5497;51.388;6.780;2022-09-03T04:25:53;13.00;94.40
10889;DHT22;5497;51.388;6.780;2022-09-03T04:28:19;13.00;93.80
10889;DHT22;5497;51.388;6.780;2022-09-03T04:30:46;13.00;94.80
10889;DHT22;5497;51.388;6.780;2022-09-03T04:33:14;12.90;94.60
10889;DHT22;5497;51.388;6.780;2022-09-03T04:35:41;12.90;94.70
10889;DHT22;5497;51.388;6.780;2022-09-03T04:38:08;12.90;94.70
10889;DHT22;5497;51.388;6.780;2022-09-03T04:40:35;12.90;94.80
10889;DHT22;5497;51.388;6.780;2022-09-03T04:43:02;12.80;94.90
10889;DHT22;5497;51.388;6.780;2022-09-03T04:45:29;12.80;94.90
10889;DHT22;5497;51.388;6.780;2022-09-03T04:47:56;12.80;95.00
10889;DHT22;5497;51.388;6.780;2022-09-03T04:50:24;12.80;95.10
10889;DHT22;5497;51.388;6.780;2022-09-03T04:52:58;12.80;95.20
10889;DHT22;5497;51.388;6.780;2022-09-03T04:55:25;12.80;95.20
10889;DHT22;5497;51.388;6.780;2022-09-03T04:57:52;12.80;95.30
10889;DHT22;5497;51.388;6.780;2022-09-03T05:00:19;12.80;95.80
10889;DHT22;5497;51.388;6.780;2022-09-03T05:02:46;12.80;95.50
10889;DHT22;5497;51.388;6.780;2022-09-03T05:05:13;12.80;95.50
10889;DHT22;5497;51.388;6.780;2022-09-03T05:07:41;12.80;95.00
10889;DHT22;5497;51.388;6.780;2022-09-03T05:10:10;12.80;95.80
10889;DHT22;5497;51.388;6.780;2022-09-03T05:12:37;12.80;95.80
10889;DHT22;5497;51.388;6.780;2022-09-03T05:15:04;12.90;95.90
10889;DHT22;5497;51.388;6.780;2022-09-03T05:17:31;12.90;95.50
10889;DHT22;5497;51.388;6.780;2022-09-03T05:19:58;13.40;96.30
10889;DHT22;5497;51.388;6.780;2022-09-03T05:22:25;12.90;96.10
10889;DHT22;5497;51.388;6.780;2022-09-03T05:24:53;13.00;96.30
10889;DHT22;5497;51.388;6.780;2022-09-03T05:29:48;13.10;96.30
10889;DHT22;5497;51.388;6.780;2022-09-03T05:32:14;13.20;96.70
10889;DHT22;5497;51.388;6.780;2022-09-03T05:34:41;13.30;96.70
10889;DHT22;5497;51.388;6.780;2022-09-03T05:37:08;13.40;96.80
10889;DHT22;5497;51.388;6.780;2022-09-03T05:39:36;13.90;96.70
10889;DHT22;5497;51.388;6.780;2022-09-03T05:42:04;14.70;97.20
10889;DHT22;5497;51.388;6.780;2022-09-03T05:44:30;15.60;97.60
10889;DHT22;5497;51.388;6.780;2022-09-03T05:46:57;16.50;97.80
10889;DHT22;5497;51.388;6.780;2022-09-03T05:49:24;18.50;98.30
10889;DHT22;5497;51.388;6.780;2022-09-03T05:51:51;18.20;97.50
10889;DHT22;5497;51.388;6.780;2022-09-03T05:54:17;20.50;97.80
10889;DHT22;5497;51.388;6.780;2022-09-03T05:56:44;20.80;97.20
10889;DHT22;5497;51.388;6.780;2022-09-03T05:59:12;20.90;96.30
10889;DHT22;5497;51.388;6.780;2022-09-03T06:01:39;21.70;95.50
10889;DHT22;5497;51.388;6.780;2022-09-03T06:04:07;22.50;94.80
10889;DHT22;5497;51.388;6.780;2022-09-03T06:06:36;23.20;94.20
10889;DHT22;5497;51.388;6.780;2022-09-03T06:09:04;24.00;93.70
10889;DHT22;5497;51.388;6.780;2022-09-03T06:11:31;24.80;92.90
10889;DHT22;5497;51.388;6.780;2022-09-03T06:14:00;25.60;92.10
10889;DHT22;5497;51.388;6.780;2022-09-03T06:16:30;26.30;91.20
10889;DHT22;5497;51.388;6.780;2022-09-03T06:18:57;27.00;90.40
10889;DHT22;5497;51.388;6.780;2022-09-03T06:21:24;27.60;89.20
10889;DHT22;5497;51.388;6.780;2022-09-03T06:23:52;28.20;87.60
10889;DHT22;5497;51.388;6.780;2022-09-03T06:26:21;28.70;86.10
10889;DHT22;5497;51.388;6.780;2022-09-03T06:28:48;29.20;84.60
10889;DHT22;5497;51.388;6.780;2022-09-03T06:31:15;29.70;83.10
10889;DHT22;5497;51.388;6.780;2022-09-03T06:33:44;30.20;81.80
10889;DHT22;5497;51.388;6.780;2022-09-03T06:36:12;30.60;80.60
10889;DHT22;5497;51.388;6.780;2022-09-03T06:38:39;31.10;79.40
10889;DHT22;5497;51.388;6.780;2022-09-03T06:41:07;31.60;78.30
10889;DHT22;5497;51.388;6.780;2022-09-03T06:43:35;32.00;76.80
10889;DHT22;5497;51.388;6.780;2022-09-03T06:46:02;32.30;75.90
10889;DHT22;5497;51.388;6.780;2022-09-03T06:48:31;32.60;74.30
10889;DHT22;5497;51.388;6.780;2022-09-03T06:51:00;32.90;73.40
10889;DHT22;5497;51.388;6.780;2022-09-03T06:53:28;33.20;72.70
10889;DHT22;5497;51.388;6.780;2022-09-03T06:55:55;33.50;71.10
10889;DHT22;5497;51.388;6.780;2022-09-03T06:58:22;33.70;69.70
10889;DHT22;5497;51.388;6.780;2022-09-03T07:00:49;33.80;68.80
10889;DHT22;5497;51.388;6.780;2022-09-03T07:03:18;33.90;67.80
10889;DHT22;5497;51.388;6.780;2022-09-03T07:05:45;34.00;67.00
10889;DHT22;5497;51.388;6.780;2022-09-03T07:08:13;34.10;66.10
10889;DHT22;5497;51.388;6.780;2022-09-03T07:10:40;34.00;65.20
10889;DHT22;5497;51.388;6.780;2022-09-03T07:13:10;33.90;64.90
10889;DHT22;5497;51.388;6.780;2022-09-03T07:15:37;34.00;65.10
10889;DHT22;5497;51.388;6.780;2022-09-03T07:18:05;33.80;63.40
10889;DHT22;5497;51.388;6.780;2022-09-03T07:20:32;33.80;63.50
10889;DHT22;5497;51.388;6.780;2022-09-03T07:22:59;33.90;63.10
10889;DHT22;5497;51.388;6.780;2022-09-03T07:25:27;33.90;61.90
10889;DHT22;5497;51.388;6.780;2022-09-03T07:27:55;33.70;60.00
10889;DHT22;5497;51.388;6.780;2022-09-03T07:30:22;33.30;60.60
10889;DHT22;5497;51.388;6.780;2022-09-03T07:35:25;32.90;61.00
10889;DHT22;5497;51.388;6.780;2022-09-03T07:37:52;32.90;60.10
10889;DHT22;5497;51.388;6.780;2022-09-03T07:40:19;32.70;60.30
10889;DHT22;5497;51.388;6.780;2022-09-03T07:42:48;32.70;60.00
10889;DHT22;5497;51.388;6.780;2022-09-03T07:45:15;32.70;59.30
10889;DHT22;5497;51.388;6.780;2022-09-03T07:47:46;32.70;58.50
10889;DHT22;5497;51.388;6.780;2022-09-03T07:50:14;32.40;58.20
10889;DHT22;5497;51.388;6.780;2022-09-03T07:52:45;32.10;59.00
10889;DHT22;5497;51.388;6.780;2022-09-03T07:55:15;32.10;59.20
10889;DHT22;5497;51.388;6.780;2022-09-03T07:57:43;32.00;58.90
10889;DHT22;5497;51.388;6.780;2022-09-03T08:00:12;31.90;58.00
10889;DHT22;5497;51.388;6.780;2022-09-03T08:02:39;31.60;58.20
10889;DHT22;5497;51.388;6.780;2022-09-03T08:05:07;31.30;58.60
10889;DHT22;5497;51.388;6.780;2022-09-03T08:07:34;31.10;59.60
10889;DHT22;5497;51.388;6.780;2022-09-03T08:10:00;31.20;59.50
10889;DHT22;5497;51.388;6.780;2022-09-03T08:12:28;31.30;58.80
10889;DHT22;5497;51.388;6.780;2022-09-03T08:14:57;31.30;58.80
10889;DHT22;5497;51.388;6.780;2022-09-03T08:17:26;31.20;58.20
10889;DHT22;5497;51.388;6.780;2022-09-03T08:19:53;31.00;58.30
10889;DHT22;5497;51.388;6.780;2022-09-03T08:22:21;30.70;58.40
10889;DHT22;5497;51.388;6.780;2022-09-03T08:24:50;30.40;58.80
10889;DHT22;5497;51.388;6.780;2022-09-03T08:27:20;30.30;59.10
10889;DHT22;5497;51.388;6.780;2022-09-03T08:29:52;30.20;59.30
10889;DHT22;5497;51.388;6.780;2022-09-03T08:32:19;30.10;59.30
10889;DHT22;5497;51.388;6.780;2022-09-03T08:34:48;30.00;59.60
10889;DHT22;5497;51.388;6.780;2022-09-03T08:37:16;30.00;59.60
10889;DHT22;5497;51.388;6.780;2022-09-03T08:39:44;30.00;59.40
10889;DHT22;5497;51.388;6.780;2022-09-03T08:44:48;29.80;59.90
10889;DHT22;5497;51.388;6.780;2022-09-03T08:47:16;29.70;59.90
10889;DHT22;5497;51.388;6.780;2022-09-03T08:49:46;29.60;60.00
10889;DHT22;5497;51.388;6.780;2022-09-03T08:52:20;29.70;60.00
10889;DHT22;5497;51.388;6.780;2022-09-03T08:54:47;29.70;60.70
10889;DHT22;5497;51.388;6.780;2022-09-03T08:57:19;29.80;60.30
10889;DHT22;5497;51.388;6.780;2022-09-03T08:59:55;29.50;59.30
10889;DHT22;5497;51.388;6.780;2022-09-03T09:02:24;29.50;59.70
10889;DHT22;5497;51.388;6.780;2022-09-03T09:04:55;29.30;60.20
10889;DHT22;5497;51.388;6.780;2022-09-03T09:07:26;28.80;60.50
10889;DHT22;5497;51.388;6.780;2022-09-03T09:09:58;28.70;61.60
10889;DHT22;5497;51.388;6.780;2022-09-03T09:12:28;28.60;61.70
10889;DHT22;5497;51.388;6.780;2022-09-03T09:15:06;28.40;61.70
10889;DHT22;5497;51.388;6.780;2022-09-03T09:17:38;28.30;61.50
10889;DHT22;5497;51.388;6.780;2022-09-03T09:20:14;28.10;62.80
10889;DHT22;5497;51.388;6.780;2022-09-03T09:22:46;28.10;63.30
10889;DHT22;5497;51.388;6.780;2022-09-03T09:25:15;28.20;63.20
10889;DHT22;5497;51.388;6.780;2022-09-03T09:27:45;28.20;63.00
10889;DHT22;5497;51.388;6.780;2022-09-03T09:30:17;28.20;62.80
10889;DHT22;5497;51.388;6.780;2022-09-03T09:32:44;27.00;62.20
10889;DHT22;5497;51.388;6.780;2022-09-03T09:35:13;27.90;62.30
10889;DHT22;5497;51.388;6.780;2022-09-03T09:37:49;27.90;63.40
10889;DHT22;5497;51.388;6.780;2022-09-03T09:40:23;27.60;63.60
10889;DHT22;5497;51.388;6.780;2022-09-03T09:42:50;27.40;64.40
10889;DHT22;5497;51.388;6.780;2022-09-03T09:45:23;27.10;63.80
10889;DHT22;5497;51.388;6.780;2022-09-03T09:47:52;27.10;65.00
10889;DHT22;5497;51.388;6.780;2022-09-03T09:50:20;26.90;65.30
10889;DHT22;5497;51.388;6.780;2022-09-03T09:52:49;26.90;65.70
10889;DHT22;5497;51.388;6.780;2022-09-03T09:55:25;26.90;66.30
10889;DHT22;5497;51.388;6.780;2022-09-03T09:57:53;27.00;66.40
10889;DHT22;5497;51.388;6.780;2022-09-03T10:00:30;27.00;66.80
10889;DHT22;5497;51.388;6.780;2022-09-03T10:03:04;27.00;67.00
10889;DHT22;5497;51.388;6.780;2022-09-03T10:05:33;26.70;66.70
10889;DHT22;5497;51.388;6.780;2022-09-03T10:08:03;26.60;68.00
10889;DHT22;5497;51.388;6.780;2022-09-03T10:10:31;26.40;68.20
10889;DHT22;5497;51.388;6.780;2022-09-03T10:13:00;26.30;69.00
10889;DHT22;5497;51.388;6.780;2022-09-03T10:15:32;26.30;69.00
10889;DHT22;5497;51.388;6.780;2022-09-03T10:18:04;26.20;69.90
10889;DHT22;5497;51.388;6.780;2022-09-03T10:20:38;26.10;70.30
10889;DHT22;5497;51.388;6.780;2022-09-03T10:23:12;26.00;70.60
10889;DHT22;5497;51.388;6.780;2022-09-03T10:25:45;26.00;69.80
10889;DHT22;5497;51.388;6.780;2022-09-03T10:28:18;26.00;71.10
10889;DHT22;5497;51.388;6.780;2022-09-03T10:31:01;26.00;71.60
10889;DHT22;5497;51.388;6.780;2022-09-03T10:33:29;26.10;72.10
10889;DHT22;5497;51.388;6.780;2022-09-03T10:36:04;26.30;71.20
10889;DHT22;5497;51.388;6.780;2022-09-03T10:38:34;26.40;72.00
10889;DHT22;5497;51.388;6.780;2022-09-03T10:41:06;26.50;72.10
10889;DHT22;5497;51.388;6.780;2022-09-03T10:43:41;26.60;71.80
10889;DHT22;5497;51.388;6.780;2022-09-03T10:46:14;26.60;71.00
10889;DHT22;5497;51.388;6.780;2022-09-03T10:48:52;26.50;71.90
10889;DHT22;5497;51.388;6.780;2022-09-03T10:51:24;26.50;72.40
10889;DHT22;5497;51.388;6.780;2022-09-03T10:54:07;26.60;73.00
10889;DHT22;5497;51.388;6.780;2022-09-03T10:56:40;26.90;71.80
10889;DHT22;5497;51.388;6.780;2022-09-03T10:59:16;27.00;72.50
10889;DHT22;5497;51.388;6.780;2022-09-03T11:01:49;27.10;72.40
10889;DHT22;5497;51.388;6.780;2022-09-03T11:04:24;27.10;71.80
10889;DHT22;5497;51.388;6.780;2022-09-03T11:06:53;27.20;72.70
10889;DHT22;5497;51.388;6.780;2022-09-03T11:09:22;27.10;73.60
10889;DHT22;5497;51.388;6.780;2022-09-03T11:11:50;27.00;73.60
10889;DHT22;5497;51.388;6.780;2022-09-03T11:14:21;27.00;73.50
10889;DHT22;5497;51.388;6.780;2022-09-03T11:16:51;27.20;73.10
10889;DHT22;5497;51.388;6.780;2022-09-03T11:19:30;27.40;73.50
10889;DHT22;5497;51.388;6.780;2022-09-03T11:21:58;27.50;73.50
10889;DHT22;5497;51.388;6.780;2022-09-03T11:26:58;27.60;74.20
10889;DHT22;5497;51.388;6.780;2022-09-03T11:29:29;27.60;74.90
10889;DHT22;5497;51.388;6.780;2022-09-03T11:31:58;27.60;75.30
10889;DHT22;5497;51.388;6.780;2022-09-03T11:34:30;27.30;75.00
10889;DHT22;5497;51.388;6.780;2022-09-03T11:37:05;27.30;75.60
10889;DHT22;5497;51.388;6.780;2022-09-03T11:39:33;27.20;76.40
10889;DHT22;5497;51.388;6.780;2022-09-03T11:42:03;27.30;76.30
10889;DHT22;5497;51.388;6.780;2022-09-03T11:44:35;27.20;75.90
10889;DHT22;5497;51.388;6.780;2022-09-03T11:47:12;27.20;76.70
10889;DHT22;5497;51.388;6.780;2022-09-03T11:49:43;27.30;76.50
10889;DHT22;5497;51.388;6.780;2022-09-03T11:52:11;27.30;76.40
10889;DHT22;5497;51.388;6.780;2022-09-03T11:54:42;27.30;75.40
10889;DHT22;5497;51.388;6.780;2022-09-03T11:57:12;27.30;76.30
10889;DHT22;5497;51.388;6.780;2022-09-03T11:59:39;27.00;76.10
10889;DHT22;5497;51.388;6.780;2022-09-03T12:02:11;27.30;76.40
10889;DHT22;5497;51.388;6.780;2022-09-03T12:04:41;27.30;75.40
10889;DHT22;5497;51.388;6.780;2022-09-03T12:10:02;27.40;75.30
10889;DHT22;5497;51.388;6.780;2022-09-03T12:12:41;27.50;74.40
10889;DHT22;5497;51.388;6.780;2022-09-03T12:15:13;27.70;73.40
10889;DHT22;5497;51.388;6.780;2022-09-03T12:17:46;27.80;73.60
10889;DHT22;5497;51.388;6.780;2022-09-03T12:20:35;28.00;73.10
10889;DHT22;5497;51.388;6.780;2022-09-03T12:23:02;28.10;72.60
10889;DHT22;5497;51.388;6.780;2022-09-03T12:25:29;28.30;71.30
10889;DHT22;5497;51.388;6.780;2022-09-03T12:28:10;28.20;71.60
10889;DHT22;5497;51.388;6.780;2022-09-03T12:30:37;28.10;72.50
10889;DHT22;5497;51.388;6.780;2022-09-03T12:33:04;28.20;72.60
10889;DHT22;5497;51.388;6.780;2022-09-03T12:35:32;28.40;72.30
10889;DHT22;5497;51.388;6.780;2022-09-03T12:37:59;28.40;72.30
10889;DHT22;5497;51.388;6.780;2022-09-03T12:40:27;28.60;72.00
10889;DHT22;5497;51.388;6.780;2022-09-03T12:42:54;28.60;71.60
10889;DHT22;5497;51.388;6.780;2022-09-03T12:45:24;28.50;71.20
10889;DHT22;5497;51.388;6.780;2022-09-03T12:47:51;28.50;72.00
10889;DHT22;5497;51.388;6.780;2022-09-03T12:50:19;28.60;71.60
10889;DHT22;5497;51.388;6.780;2022-09-03T12:52:47;28.60;71.30
10889;DHT22;5497;51.388;6.780;2022-09-03T12:55:18;28.50;70.80
10889;DHT22;5497;51.388;6.780;2022-09-03T12:57:47;28.40;71.30
10889;DHT22;5497;51.388;6.780;2022-09-03T13:00:15;28.10;71.70
10889;DHT22;5497;51.388;6.780;2022-09-03T13:02:48;27.80;72.30
10889;DHT22;5497;51.388;6.780;2022-09-03T13:05:17;27.50;72.90
10889;DHT22;5497;51.388;6.780;2022-09-03T13:07:46;27.20;73.40
10889;DHT22;5497;51.388;6.780;2022-09-03T13:10:22;27.00;73.70
10889;DHT22;5497;51.388;6.780;2022-09-03T13:12:56;26.90;74.50
10889;DHT22;5497;51.388;6.780;2022-09-03T13:15:23;26.70;73.90
10889;DHT22;5497;51.388;6.780;2022-09-03T13:17:56;26.70;75.70
10889;DHT22;5497;51.388;6.780;2022-09-03T13:20:29;26.70;76.10
10889;DHT22;5497;51.388;6.780;2022-09-03T13:23:04;26.80;76.70
10889;DHT22;5497;51.388;6.780;2022-09-03T13:25:35;26.90;76.00
10889;DHT22;5497;51.388;6.780;2022-09-03T13:28:06;27.00;76.90
10889;DHT22;5497;51.388;6.780;2022-09-03T13:30:37;27.10;77.20
10889;DHT22;5497;51.388;6.780;2022-09-03T13:33:09;27.20;77.10
10889;DHT22;5497;51.388;6.780;2022-09-03T13:35:43;27.10;75.90
10889;DHT22;5497;51.388;6.780;2022-09-03T13:38:15;27.00;77.00
10889;DHT22;5497;51.388;6.780;2022-09-03T13:40:46;27.00;77.20
10889;DHT22;5497;51.388;6.780;2022-09-03T13:43:19;27.00;77.70
10889;DHT22;5497;51.388;6.780;2022-09-03T13:45:49;27.00;76.80
10889;DHT22;5497;51.388;6.780;2022-09-03T13:48:21;27.00;77.80
10889;DHT22;5497;51.388;6.780;2022-09-03T13:51:10;27.00;78.00
10889;DHT22;5497;51.388;6.780;2022-09-03T13:53:42;27.10;78.20
10889;DHT22;5497;51.388;6.780;2022-09-03T13:56:15;27.40;77.40
10889;DHT22;5497;51.388;6.780;2022-09-03T13:58:43;27.60;78.40
10889;DHT22;5497;51.388;6.780;2022-09-03T14:01:14;27.90;77.80
10889;DHT22;5497;51.388;6.780;2022-09-03T14:03:47;28.00;76.70
10889;DHT22;5497;51.388;6.780;2022-09-03T14:06:24;28.10;75.50
10889;DHT22;5497;51.388;6.780;2022-09-03T14:08:58;28.10;76.00
10889;DHT22;5497;51.388;6.780;2022-09-03T14:11:27;28.20;76.50
10889;DHT22;5497;51.388;6.780;2022-09-03T14:14:02;28.30;76.70
10889;DHT22;5497;51.388;6.780;2022-09-03T14:16:35;28.50;75.90
10889;DHT22;5497;51.388;6.780;2022-09-03T14:19:08;28.80;75.60
10889;DHT22;5497;51.388;6.780;2022-09-03T14:21:38;28.80;76.20
10889;DHT22;5497;51.388;6.780;2022-09-03T14:24:09;29.00;75.90
10889;DHT22;5497;51.388;6.780;2022-09-03T14:26:47;29.00;74.60
10889;DHT22;5497;51.388;6.780;2022-09-03T14:29:15;28.90;75.10
10889;DHT22;5497;51.388;6.780;2022-09-03T14:31:49;28.90;75.10
10889;DHT22;5497;51.388;6.780;2022-09-03T14:34:25;28.80;75.00
10889;DHT22;5497;51.388;6.780;2022-09-03T14:36:57;28.90;75.70
10889;DHT22;5497;51.388;6.780;2022-09-03T14:39:32;29.00;75.30
10889;DHT22;5497;51.388;6.780;2022-09-03T14:42:10;29.10;74.60
10889;DHT22;5497;51.388;6.780;2022-09-03T14:47:43;29.20;74.30
10889;DHT22;5497;51.388;6.780;2022-09-03T14:50:20;29.20;74.30
10889;DHT22;5497;51.388;6.780;2022-09-03T14:52:52;29.00;74.20
10889;DHT22;5497;51.388;6.780;2022-09-03T14:55:28;28.80;74.20
10889;DHT22;5497;51.388;6.780;2022-09-03T14:58:03;28.60;74.60
10889;DHT22;5497;51.388;6.780;2022-09-03T15:00:35;28.40;75.00
10889;DHT22;5497;51.388;6.780;2022-09-03T15:03:15;28.30;75.30
10889;DHT22;5497;51.388;6.780;2022-09-03T15:05:48;28.20;74.70
10889;DHT22;5497;51.388;6.780;2022-09-03T15:08:19;28.10;75.70
10889;DHT22;5497;51.388;6.780;2022-09-03T15:10:51;28.00;75.90
10889;DHT22;5497;51.388;6.780;2022-09-03T15:13:22;27.90;76.10
10889;DHT22;5497;51.388;6.780;2022-09-03T15:15:53;27.90;75.60
10889;DHT22;5497;51.388;6.780;2022-09-03T15:18:24;27.80;76.50
10889;DHT22;5497;51.388;6.780;2022-09-03T15:20:56;27.70;76.70
10889;DHT22;5497;51.388;6.780;2022-09-03T15:23:30;27.50;76.90
10889;DHT22;5497;51.388;6.780;2022-09-03T15:29:07;27.20;77.50
10889;DHT22;5497;51.388;6.780;2022-09-03T15:31:41;27.10;78.00
10889;DHT22;5497;51.388;6.780;2022-09-03T15:34:13;27.10;78.30
10889;DHT22;5497;51.388;6.780;2022-09-03T15:36:43;27.20;77.80
10889;DHT22;5497;51.388;6.780;2022-09-03T15:39:15;27.40;78.60
10889;DHT22;5497;51.388;6.780;2022-09-03T15:41:45;27.60;78.20
10889;DHT22;5497;51.388;6.780;2022-09-03T15:44:14;27.70;78.00
10889;DHT22;5497;51.388;6.780;2022-09-03T15:46:47;27.80;77.40
10889;DHT22;5497;51.388;6.780;2022-09-03T15:49:22;27.90;77.80
10889;DHT22;5497;51.388;6.780;2022-09-03T15:52:01;27.80;77.30
10889;DHT22;5497;51.388;6.780;2022-09-03T15:54:34;29.30;78.20
10889;DHT22;5497;51.388;6.780;2022-09-03T15:57:04;27.50;77.50
10889;DHT22;5497;51.388;6.780;2022-09-03T15:59:33;27.30;77.90
10889;DHT22;5497;51.388;6.780;2022-09-03T16:02:04;27.10;77.90
10889;DHT22;5497;51.388;6.780;2022-09-03T16:04:39;26.90;77.80
10889;DHT22;5497;51.388;6.780;2022-09-03T16:07:22;26.90;78.70
10889;DHT22;5497;51.388;6.780;2022-09-03T16:09:53;26.90;78.40
10889;DHT22;5497;51.388;6.780;2022-09-03T16:12:25;26.90;79.40
10889;DHT22;5497;51.388;6.780;2022-09-03T16:14:58;27.10;78.50
10889;DHT22;5497;51.388;6.780;2022-09-03T16:17:27;27.10;79.30
10889;DHT22;5497;51.388;6.780;2022-09-03T16:19:58;27.20;78.90
10889;DHT22;5497;51.388;6.780;2022-09-03T16:22:29;27.20;79.10
10889;DHT22;5497;51.388;6.780;2022-09-03T16:24:58;27.10;78.10
10889;DHT22;5497;51.388;6.780;2022-09-03T16:27:27;27.10;79.10